createdAt,value
2022-09-13T00:01:33.215Z,66.97
2022-09-13T00:04:35.844Z,66.55
2022-09-13T00:07:39.880Z,67.41
2022-09-13T00:10:43.734Z,67.50
2022-09-13T00:13:46.914Z,67.70
2022-09-13T00:16:49.502Z,67.27
2022-09-13T00:19:52.277Z,67.10
2022-09-13T00:22:56.168Z,67.75
2022-09-13T00:26:04.992Z,68.04
2022-09-13T00:29:07.623Z,67.98
2022-09-13T00:32:10.340Z,67.50
2022-09-13T00:35:13.005Z,66.82
2022-09-13T00:38:17.066Z,66.84
2022-09-13T00:41:21.600Z,66.78
2022-09-13T00:44:49.944Z,66.50
2022-09-13T00:47:57.376Z,66.74
2022-09-13T00:51:00.395Z,66.83
2022-09-13T00:54:06.104Z,66.56
2022-09-13T00:57:10.712Z,66.97
2022-09-13T01:00:17.626Z,66.44
2022-09-13T01:03:22.798Z,66.58
2022-09-13T01:06:31.016Z,66.41
2022-09-13T01:09:39.880Z,66.52
2022-09-13T01:12:48.500Z,66.48
2022-09-13T01:15:51.932Z,66.50
2022-09-13T01:18:54.669Z,66.50
2022-09-13T01:22:30.160Z,66.02
2022-09-13T01:26:06.084Z,66.59
2022-09-13T01:29:38.591Z,66.87
2022-09-13T01:33:07.371Z,66.72
2022-09-13T01:36:34.178Z,66.36
2022-09-13T01:39:51.477Z,67.14
2022-09-13T01:43:09.046Z,66.74
2022-09-13T01:46:19.121Z,66.67
2022-09-13T01:49:31.580Z,66.64
2022-09-13T01:52:41.820Z,66.28
2022-09-13T01:55:49.518Z,65.40
2022-09-13T01:58:57.881Z,65.76
2022-09-13T02:02:05.187Z,66.04
2022-09-13T02:05:15.490Z,66.21
2022-09-13T02:08:23.038Z,65.64
2022-09-13T02:11:25.985Z,66.35
2022-09-13T02:14:32.743Z,66.01
2022-09-13T02:17:39.440Z,66.28
2022-09-13T02:20:48.472Z,65.78
2022-09-13T02:23:54.373Z,65.85
2022-09-13T02:27:01.275Z,66.37
2022-09-13T02:30:07.771Z,66.74
2022-09-13T02:33:13.408Z,66.60
2022-09-13T02:36:21.893Z,66.53
2022-09-13T02:39:28.334Z,66.38
2022-09-13T02:42:36.633Z,66.29
2022-09-13T02:45:48.486Z,66.47
2022-09-13T02:48:58.759Z,66.38
2022-09-13T02:52:11.410Z,66.61
2022-09-13T02:55:20.091Z,66.27
2022-09-13T02:58:29.984Z,66.63
2022-09-13T03:01:33.336Z,66.68
2022-09-13T03:04:36.548Z,66.66
2022-09-13T03:07:40.503Z,66.63
2022-09-13T03:10:53.244Z,66.61
2022-09-13T03:14:13.891Z,67.31
2022-09-13T03:17:32.910Z,66.58
2022-09-13T03:20:44.719Z,66.16
2022-09-13T03:24:01.208Z,66.54
2022-09-13T03:27:17.540Z,66.76
2022-09-13T03:30:20.856Z,66.91
2022-09-13T03:33:31.107Z,66.89
2022-09-13T03:36:38.679Z,67.15
2022-09-13T03:39:48.529Z,67.09
2022-09-13T03:42:57.107Z,66.99
2022-09-13T03:46:05.066Z,66.87
2022-09-13T03:49:12.154Z,65.94
2022-09-13T03:52:14.975Z,66.53
2022-09-13T03:55:21.160Z,66.12
2022-09-13T03:58:26.699Z,66.30
2022-09-13T04:01:29.563Z,66.84
2022-09-13T04:04:32.737Z,67.07
2022-09-13T04:07:35.318Z,65.93
2022-09-13T04:10:39.467Z,66.99
2022-09-13T04:13:42.334Z,67.31
2022-09-13T04:16:45.054Z,67.08
2022-09-13T04:19:47.811Z,67.30
2022-09-13T04:22:53.788Z,66.80
2022-09-13T04:26:02.734Z,67.33
2022-09-13T04:29:05.534Z,67.81
2022-09-13T04:32:09.209Z,67.29
2022-09-13T04:35:12.809Z,67.05
2022-09-13T04:38:15.391Z,67.14
2022-09-13T04:41:19.476Z,67.45
2022-09-13T04:44:24.425Z,67.06
2022-09-13T04:47:27.427Z,67.92
2022-09-13T04:50:30.015Z,67.16
2022-09-13T04:53:32.790Z,67.80
2022-09-13T04:56:36.731Z,67.94
2022-09-13T04:59:39.335Z,67.43
2022-09-13T05:02:41.910Z,66.98
2022-09-13T05:05:44.583Z,69.10
2022-09-13T05:08:52.259Z,68.54
2022-09-13T05:11:56.604Z,66.60
2022-09-13T05:14:59.287Z,67.12
2022-09-13T05:18:01.839Z,68.78
2022-09-13T05:21:06.406Z,68.04
2022-09-13T05:24:09.473Z,67.84
2022-09-13T05:27:13.577Z,68.26
2022-09-13T05:30:16.298Z,68.79
2022-09-13T05:33:19.009Z,69.30
2022-09-13T05:36:21.729Z,69.16
2022-09-13T05:39:48.528Z,68.54
2022-09-13T05:42:48.740Z,68.42
2022-09-13T05:45:51.646Z,68.25
2022-09-13T05:48:54.211Z,68.59
2022-09-13T05:51:56.871Z,69.26
2022-09-13T05:54:59.405Z,69.53
2022-09-13T05:58:03.905Z,70.66
2022-09-13T06:01:07.188Z,71.05
2022-09-13T06:04:12.729Z,71.25
2022-09-13T06:07:15.288Z,70.70
2022-09-13T06:10:18.104Z,72.08
2022-09-13T06:13:22.268Z,73.08
2022-09-13T06:16:25.005Z,74.00
2022-09-13T06:19:27.606Z,75.57
2022-09-13T06:22:33.390Z,76.00
2022-09-13T06:25:36.021Z,75.45
2022-09-13T06:28:40.934Z,77.11
2022-09-13T06:31:45.324Z,77.47
2022-09-13T06:34:48.300Z,77.16
2022-09-13T06:37:51.173Z,77.92
2022-09-13T06:41:00.953Z,76.68
2022-09-13T06:44:05.567Z,76.63
2022-09-13T06:47:08.178Z,76.82
2022-09-13T06:50:11.177Z,76.91
2022-09-13T06:53:13.860Z,77.51
2022-09-13T06:56:18.017Z,77.19
2022-09-13T06:59:22.226Z,76.92
2022-09-13T07:02:25.811Z,77.03
2022-09-13T07:05:28.419Z,77.29
2022-09-13T07:08:32.727Z,77.54
2022-09-13T07:11:38.089Z,75.99
2022-09-13T07:14:42.132Z,75.60
2022-09-13T07:17:44.670Z,76.29
2022-09-13T07:20:47.472Z,76.54
2022-09-13T07:23:50.680Z,75.50
2022-09-13T07:26:53.431Z,76.14
2022-09-13T07:29:57.810Z,76.99
2022-09-13T07:33:00.502Z,76.55
2022-09-13T07:36:06.422Z,76.76
2022-09-13T07:39:14.362Z,75.22
2022-09-13T07:42:18.277Z,75.24
2022-09-13T07:45:23.983Z,76.04
2022-09-13T07:48:39.813Z,76.05
2022-09-13T07:51:43.955Z,76.18
2022-09-13T07:54:47.815Z,75.05
2022-09-13T07:57:50.427Z,74.64
2022-09-13T08:00:54.411Z,74.71
2022-09-13T08:03:58.869Z,73.17
2022-09-13T08:07:01.480Z,74.14
2022-09-13T08:10:04.388Z,73.55
2022-09-13T08:13:06.935Z,72.41
2022-09-13T08:16:11.705Z,74.97
2022-09-13T08:19:17.962Z,73.85
2022-09-13T08:22:21.113Z,73.82
2022-09-13T08:25:23.658Z,74.65
2022-09-13T08:28:27.809Z,73.48
2022-09-13T08:31:32.516Z,73.10
2022-09-13T08:34:35.186Z,74.69
2022-09-13T08:37:37.752Z,73.61
2022-09-13T08:40:44.300Z,72.37
2022-09-13T08:43:51.658Z,73.33
2022-09-13T08:47:05.563Z,72.84
2022-09-13T08:50:15.640Z,72.12
2022-09-13T08:53:21.918Z,71.66
2022-09-13T08:56:31.337Z,71.76
2022-09-13T08:59:47.752Z,69.96
2022-09-13T09:03:03.621Z,70.97
2022-09-13T09:06:13.751Z,69.98
2022-09-13T09:09:20.488Z,68.14
2022-09-13T09:12:34.230Z,68.35
2022-09-13T09:15:41.341Z,67.47
2022-09-13T09:18:48.975Z,66.85
2022-09-13T09:21:52.290Z,69.44
2022-09-13T09:24:58.251Z,69.47
2022-09-13T09:28:00.987Z,68.25
2022-09-13T09:31:12.461Z,64.42
2022-09-13T09:34:28.537Z,63.36
2022-09-13T09:37:34.468Z,63.16
2022-09-13T09:40:38.885Z,64.82
2022-09-13T09:43:47.105Z,65.09
2022-09-13T09:46:57.021Z,64.43
2022-09-13T09:50:10.821Z,63.29
2022-09-13T09:53:18.025Z,63.04
2022-09-13T09:56:24.379Z,62.12
2022-09-13T09:59:29.314Z,60.52
2022-09-13T10:02:32.943Z,60.57
2022-09-13T10:05:37.473Z,59.09
2022-09-13T10:08:43.276Z,60.84
2022-09-13T10:11:50.090Z,61.85
2022-09-13T10:14:59.334Z,61.28
2022-09-13T10:18:16.780Z,61.82
2022-09-13T10:21:30.088Z,61.45
2022-09-13T10:24:34.010Z,62.83
2022-09-13T10:27:42.672Z,63.70
2022-09-13T10:30:49.439Z,63.00
2022-09-13T10:34:00.323Z,62.86
2022-09-13T10:37:11.736Z,63.74
2022-09-13T10:40:20.670Z,63.89
2022-09-13T10:43:25.822Z,62.85
2022-09-13T10:46:32.156Z,62.22
2022-09-13T10:49:49.429Z,62.56
2022-09-13T10:52:54.792Z,62.71
2022-09-13T10:55:57.532Z,64.32
2022-09-13T10:59:21.436Z,64.92
2022-09-13T11:02:44.415Z,65.25
2022-09-13T11:05:56.543Z,65.91
2022-09-13T11:09:11.539Z,65.83
2022-09-13T11:12:20.312Z,65.72
2022-09-13T11:15:37.298Z,65.84
2022-09-13T11:18:59.923Z,65.74
2022-09-13T11:22:20.369Z,65.24
2022-09-13T11:25:45.359Z,66.17
2022-09-13T11:28:57.174Z,65.42
2022-09-13T11:32:16.663Z,66.28
2022-09-13T11:35:35.247Z,66.46
2022-09-13T11:38:51.505Z,67.83
2022-09-13T11:42:06.418Z,67.35
2022-09-13T11:45:30.488Z,67.74
2022-09-13T11:49:01.222Z,66.56
2022-09-13T11:52:16.156Z,67.55
2022-09-13T11:55:24.730Z,67.51
2022-09-13T11:58:35.051Z,68.06
2022-09-13T12:01:46.047Z,68.35
2022-09-13T12:05:11.320Z,70.17
2022-09-13T12:08:20.960Z,71.90
2022-09-13T12:11:27.695Z,71.72
2022-09-13T12:18:18.413Z,72.53
2022-09-13T12:21:24.056Z,73.97
2022-09-13T12:24:36.042Z,73.70
2022-09-13T12:27:44.157Z,73.82
2022-09-13T12:30:53.402Z,72.75
2022-09-13T12:33:56.984Z,74.09
2022-09-13T12:37:15.363Z,74.63
2022-09-13T12:40:39.667Z,74.85
2022-09-13T12:44:12.627Z,75.46
2022-09-13T12:47:54.941Z,74.77
2022-09-13T12:51:09.861Z,75.41
2022-09-13T12:54:45.117Z,75.81
2022-09-13T13:01:10.829Z,75.08
2022-09-13T13:04:18.602Z,74.60
2022-09-13T13:07:24.644Z,73.38
2022-09-13T13:10:31.722Z,73.40
2022-09-13T13:13:37.472Z,73.82
2022-09-13T13:16:41.850Z,72.80
2022-09-13T13:19:45.100Z,72.37
2022-09-13T13:22:52.335Z,70.90
2022-09-13T13:26:10.067Z,72.64
2022-09-13T13:29:16.544Z,70.92
2022-09-13T13:32:19.218Z,69.99
2022-09-13T13:38:58.453Z,69.42
2022-09-13T13:42:03.142Z,68.85
2022-09-13T13:45:16.310Z,68.03
2022-09-13T13:48:36.881Z,67.38
2022-09-13T13:51:39.457Z,67.15
2022-09-13T13:55:02.382Z,66.64
2022-09-13T13:58:16.585Z,68.48
2022-09-13T14:01:24.226Z,68.88
2022-09-13T14:05:01.582Z,67.87
2022-09-13T14:08:39.018Z,67.72
2022-09-13T14:11:55.468Z,66.88
2022-09-13T14:15:22.279Z,67.65
2022-09-13T14:18:57.462Z,67.44
2022-09-13T14:22:12.813Z,66.93
2022-09-13T14:25:24.227Z,67.34
2022-09-13T14:28:29.453Z,67.27
2022-09-13T14:31:32.154Z,66.33
2022-09-13T14:34:38.231Z,67.94
2022-09-13T14:37:40.872Z,67.32
2022-09-13T14:40:49.269Z,66.62
2022-09-13T14:43:53.257Z,64.72
2022-09-13T14:47:05.425Z,64.88
2022-09-13T14:50:14.884Z,65.46
2022-09-13T14:53:21.885Z,66.51
2022-09-13T14:56:32.309Z,65.21
2022-09-13T14:59:43.654Z,65.51
2022-09-13T15:02:50.972Z,65.01
2022-09-13T15:05:56.996Z,64.68
2022-09-13T15:09:13.930Z,65.07
2022-09-13T15:12:25.978Z,65.72
2022-09-13T15:15:36.851Z,65.96
2022-09-13T15:18:39.534Z,65.51
2022-09-13T15:21:42.122Z,65.39
2022-09-13T15:24:47.544Z,65.42
2022-09-13T15:27:50.844Z,66.30
2022-09-13T15:30:57.269Z,66.13
2022-09-13T15:34:13.739Z,64.78
2022-09-13T15:37:17.087Z,66.40
2022-09-13T15:40:22.428Z,67.21
2022-09-13T15:43:25.374Z,66.31
2022-09-13T15:46:29.651Z,65.48
2022-09-13T15:49:34.425Z,67.57
2022-09-13T15:52:36.993Z,67.89
2022-09-13T15:55:40.669Z,67.37
2022-09-13T15:58:43.248Z,68.51
2022-09-13T16:01:49.437Z,68.42
2022-09-13T16:04:52.626Z,68.11
2022-09-13T16:07:58.906Z,68.89
2022-09-13T16:11:01.492Z,69.20
2022-09-13T16:14:04.284Z,68.80
2022-09-13T16:17:12.441Z,68.71
2022-09-13T16:20:16.415Z,68.64
2022-09-13T16:23:18.974Z,69.34
2022-09-13T16:26:21.719Z,68.85
2022-09-13T16:29:24.405Z,69.11
2022-09-13T16:32:28.495Z,69.20
2022-09-13T16:35:32.929Z,69.54
2022-09-13T16:38:35.626Z,68.84
2022-09-13T16:41:40.163Z,69.22
2022-09-13T16:44:43.166Z,69.88
2022-09-13T16:47:47.366Z,70.13
2022-09-13T16:50:49.958Z,70.35
2022-09-13T16:53:54.090Z,71.39
2022-09-13T16:56:57.466Z,71.35
2022-09-13T17:00:00.293Z,71.73
2022-09-13T17:03:04.301Z,71.53
2022-09-13T17:06:09.624Z,71.99
2022-09-13T17:09:12.253Z,72.49
2022-09-13T17:12:15.474Z,73.53
2022-09-13T17:15:18.136Z,72.82
2022-09-13T17:18:22.227Z,73.15
2022-09-13T17:21:25.791Z,73.41
2022-09-13T17:24:30.558Z,74.79
2022-09-13T17:27:33.192Z,74.27
2022-09-13T17:30:35.794Z,74.43
2022-09-13T17:33:39.814Z,74.57
2022-09-13T17:36:43.194Z,74.13
2022-09-13T17:39:46.325Z,74.38
2022-09-13T17:42:50.112Z,75.28
2022-09-13T17:45:52.846Z,75.22
2022-09-13T17:48:59.669Z,75.79
2022-09-13T17:52:03.773Z,75.98
2022-09-13T17:55:07.090Z,75.78
2022-09-13T17:58:09.789Z,76.06
2022-09-13T18:01:12.562Z,75.57
2022-09-13T18:04:18.025Z,75.86
2022-09-13T18:07:20.901Z,75.92
2022-09-13T18:10:45.549Z,76.79
2022-09-13T18:13:46.852Z,76.09
2022-09-13T18:16:55.392Z,75.67
2022-09-13T18:19:59.425Z,77.02
2022-09-13T18:23:01.985Z,76.69
2022-09-13T18:26:10.623Z,76.76
2022-09-13T18:29:14.980Z,77.17
2022-09-13T18:32:17.708Z,77.10
2022-09-13T18:35:21.632Z,77.76
2022-09-13T18:38:24.227Z,77.96
2022-09-13T18:41:28.758Z,77.93
2022-09-13T18:44:33.745Z,78.13
2022-09-13T18:47:36.572Z,78.30
2022-09-13T18:50:44.331Z,78.62
2022-09-13T18:53:47.733Z,78.94
2022-09-13T18:56:51.116Z,78.60
2022-09-13T18:59:53.653Z,78.82
2022-09-13T19:03:11.411Z,78.97
2022-09-13T19:06:17.509Z,78.58
2022-09-13T19:09:22.821Z,78.45
2022-09-13T19:12:25.372Z,78.18
2022-09-13T19:15:27.975Z,77.93
2022-09-13T19:18:31.058Z,77.58
2022-09-13T19:21:35.216Z,77.65
2022-09-13T19:24:38.274Z,77.25
2022-09-13T19:27:41.247Z,77.17
2022-09-13T19:30:47.952Z,77.36
2022-09-13T19:33:51.617Z,77.53
2022-09-13T19:36:58.062Z,77.55
2022-09-13T19:40:01.044Z,77.48
2022-09-13T19:43:03.828Z,77.86
2022-09-13T19:46:08.683Z,77.76
2022-09-13T19:49:16.028Z,77.18
2022-09-13T19:52:20.955Z,77.65
2022-09-13T19:55:23.628Z,77.85
2022-09-13T19:58:26.875Z,77.95
2022-09-13T20:01:32.042Z,77.83
2022-09-13T20:04:35.737Z,77.34
2022-09-13T20:07:40.557Z,77.04
2022-09-13T20:10:43.291Z,77.24
2022-09-13T20:13:48.137Z,77.39
2022-09-13T20:16:50.856Z,76.74
2022-09-13T20:19:57.732Z,77.37
2022-09-13T20:23:01.714Z,77.09
2022-09-13T20:26:06.140Z,77.57
2022-09-13T20:29:09.386Z,77.52
2022-09-13T20:32:12.160Z,77.52
2022-09-13T20:35:14.888Z,77.01
2022-09-13T20:38:19.225Z,77.16
2022-09-13T20:41:22.856Z,77.30
2022-09-13T20:44:25.669Z,76.81
2022-09-13T20:47:29.072Z,77.05
2022-09-13T20:50:31.737Z,76.80
2022-09-13T20:53:35.921Z,76.57
2022-09-13T20:56:38.602Z,76.20
2022-09-13T20:59:41.168Z,75.77
2022-09-13T21:02:43.940Z,75.51
2022-09-13T21:05:46.526Z,75.71
2022-09-13T21:08:50.466Z,74.99
2022-09-13T21:11:53.284Z,74.68
2022-09-13T21:14:56.045Z,74.84
2022-09-13T21:17:58.632Z,74.54
2022-09-13T21:21:02.761Z,74.61
2022-09-13T21:24:09.578Z,74.56
2022-09-13T21:27:12.377Z,74.59
2022-09-13T21:30:15.766Z,74.27
2022-09-13T21:33:18.466Z,74.06
2022-09-13T21:36:21.072Z,74.09
2022-09-13T21:39:25.341Z,74.02
2022-09-13T21:42:28.112Z,74.01
2022-09-13T21:45:31.619Z,74.26
2022-09-13T21:48:35.880Z,74.12
2022-09-13T21:51:40.116Z,74.05
2022-09-13T21:54:44.200Z,73.99
2022-09-13T21:57:46.746Z,74.07
2022-09-13T22:00:49.518Z,73.86
2022-09-13T22:03:53.505Z,74.03
2022-09-13T22:06:56.643Z,73.61
2022-09-13T22:10:00.548Z,74.06
2022-09-13T22:13:07.167Z,73.53
2022-09-13T22:16:10.979Z,73.76
2022-09-13T22:19:16.046Z,73.84
2022-09-13T22:22:18.637Z,74.10
2022-09-13T22:25:23.200Z,73.59
2022-09-13T22:28:25.774Z,73.32
2022-09-13T22:31:30.099Z,73.41
2022-09-13T22:34:34.870Z,73.64
2022-09-13T22:37:37.710Z,73.48
2022-09-13T22:40:47.871Z,73.71
2022-09-13T22:43:50.837Z,74.14
2022-09-13T22:46:53.466Z,74.39
2022-09-13T22:49:56.154Z,74.86
2022-09-13T22:52:58.718Z,74.78
2022-09-13T22:56:06.015Z,74.79
2022-09-13T22:59:09.991Z,75.08
2022-09-13T23:02:12.674Z,75.18
2022-09-13T23:05:15.317Z,75.55
2022-09-13T23:08:18.198Z,75.39
2022-09-13T23:11:24.494Z,75.18
2022-09-13T23:14:27.294Z,74.93
2022-09-13T23:17:30.273Z,75.54
2022-09-13T23:20:33.296Z,75.59
2022-09-13T23:23:36.337Z,75.69
2022-09-13T23:26:40.765Z,75.74
2022-09-13T23:29:43.605Z,76.20
2022-09-13T23:32:48.340Z,76.26
2022-09-13T23:35:51.604Z,76.14
2022-09-13T23:38:55.819Z,76.05
2022-09-13T23:42:00.008Z,76.17
2022-09-13T23:45:03.014Z,75.97
2022-09-13T23:48:07.275Z,76.03
2022-09-13T23:51:12.355Z,76.28
2022-09-13T23:54:16.523Z,76.18
2022-09-13T23:57:20.617Z,76.02
